Time;durP1;ratioP1;P1;durP2;ratioP2;P2;SDS_P1;SDS_P2;PMS_P1;PMS_P2;Temp;Humidity;BMP_temperature;BMP_pressure;BME280_temperature;BME280_humidity;BME280_pressure;Samples;Min_cycle;Max_cycle;Signal;HPM_P1;HPM_P2
2023/07/17 00:00:26;;;;;;;9.18;2.50;;;;;;;;;;5052762;28;20060;-59
2023/07/17 00:02:55;;;;;;;7.67;2.17;;;;;;;;;;5064569;28;20052;-59
2023/07/17 00:05:23;;;;;;;9.65;2.65;;;;;;;;;;5058543;28;20044;-59
2023/07/17 00:07:51;;;;;;;8.23;2.70;;;;;;;;;;5067700;28;20063;-59
2023/07/17 00:10:18;;;;;;;11.07;2.50;;;;;;;;;;5054472;28;20039;-59
2023/07/17 00:12:46;;;;;;;12.88;2.80;;;;;;;;;;5060989;28;20072;-58
2023/07/17 00:15:14;;;;;;;8.67;2.17;;;;;;;;;;5064634;28;21175;-60
2023/07/17 00:17:42;;;;;;;6.53;2.20;;;;;;;;;;5061365;28;20211;-59
2023/07/17 00:20:12;;;;;;;6.35;2.35;;;;;;;;;;5064829;28;20048;-59
2023/07/17 00:22:40;;;;;;;9.45;2.78;;;;;;;;;;5048340;28;20054;-59
2023/07/17 00:25:09;;;;;;;9.05;2.25;;;;;;;;;;5068644;28;20051;-59
2023/07/17 00:27:36;;;;;;;7.70;2.37;;;;;;;;;;5052441;28;20052;-59
2023/07/17 00:30:05;;;;;;;8.55;2.58;;;;;;;;;;5066014;28;20048;-59
2023/07/17 00:32:32;;;;;;;9.60;2.30;;;;;;;;;;5056385;28;20079;-59
2023/07/17 00:35:00;;;;;;;9.65;2.47;;;;;;;;;;5071474;28;20051;-59
2023/07/17 00:37:30;;;;;;;8.48;2.30;;;;;;;;;;5057438;28;20131;-59
2023/07/17 00:39:59;;;;;;;8.73;2.13;;;;;;;;;;5063420;28;20142;-60
2023/07/17 00:42:27;;;;;;;11.45;2.45;;;;;;;;;;5058913;28;20052;-58
2023/07/17 00:44:55;;;;;;;8.50;2.05;;;;;;;;;;5058854;28;20090;-59
2023/07/17 00:47:22;;;;;;;10.35;2.20;;;;;;;;;;5067493;28;20530;-59
2023/07/17 00:49:50;;;;;;;10.00;2.00;;;;;;;;;;5050951;28;20048;-59
2023/07/17 00:52:18;;;;;;;7.70;2.40;;;;;;;;;;5066034;28;20040;-59
2023/07/17 00:54:47;;;;;;;9.00;2.53;;;;;;;;;;5050857;28;20049;-59
2023/07/17 00:57:16;;;;;;;10.38;2.50;;;;;;;;;;5067977;28;20052;-59
2023/07/17 00:59:44;;;;;;;9.05;2.25;;;;;;;;;;5050818;28;20072;-59
2023/07/17 01:02:13;;;;;;;11.18;2.20;;;;;;;;;;5051375;28;20048;-59
2023/07/17 01:04:44;;;;;;;8.40;2.30;;;;;;;;;;5053097;28;20129;-59
2023/07/17 01:07:12;;;;;;;11.13;2.67;;;;;;;;;;5061088;28;20048;-59
2023/07/17 01:09:39;;;;;;;9.60;2.72;;;;;;;;;;5059584;28;20049;-59
2023/07/17 01:12:09;;;;;;;9.32;2.45;;;;;;;;;;5065621;28;20040;-59
2023/07/17 01:14:37;;;;;;;10.48;2.03;;;;;;;;;;5039373;28;20056;-59
2023/07/17 01:17:04;;;;;;;7.47;2.03;;;;;;;;;;5064776;28;20040;-59
2023/07/17 01:19:32;;;;;;;9.23;2.25;;;;;;;;;;5048664;28;20654;-59
2023/07/17 01:22:09;;;;;;;12.40;2.33;;;;;;;;;;5062245;28;20143;-60
2023/07/17 01:24:38;;;;;;;8.60;1.95;;;;;;;;;;5052241;28;20056;-59
2023/07/17 01:27:09;;;;;;;11.73;3.00;;;;;;;;;;5067182;28;20047;-59
2023/07/17 01:29:37;;;;;;;7.17;2.03;;;;;;;;;;5057716;28;20079;-59
2023/07/17 01:32:06;;;;;;;8.73;2.13;;;;;;;;;;5050990;28;20036;-59
2023/07/17 01:34:33;;;;;;;16.75;2.70;;;;;;;;;;5069372;28;20081;-59
2023/07/17 01:37:01;;;;;;;16.38;2.30;;;;;;;;;;5048936;28;20066;-58
2023/07/17 01:39:29;;;;;;;8.07;2.63;;;;;;;;;;5060401;28;20365;-58
2023/07/17 01:41:58;;;;;;;9.00;2.03;;;;;;;;;;5049766;28;20696;-60
2023/07/17 01:44:28;;;;;;;10.50;2.45;;;;;;;;;;5066991;28;20062;-57
2023/07/17 01:46:55;;;;;;;8.75;2.85;;;;;;;;;;5050727;28;20498;-58
2023/07/17 01:49:23;;;;;;;8.00;2.35;;;;;;;;;;5045339;28;20072;-59
2023/07/17 01:51:51;;;;;;;13.98;2.67;;;;;;;;;;5040252;28;20048;-59
2023/07/17 01:54:19;;;;;;;8.90;2.57;;;;;;;;;;5053106;28;20063;-59
2023/07/17 01:56:46;;;;;;;7.80;1.98;;;;;;;;;;5060127;28;20522;-57
2023/07/17 01:59:15;;;;;;;8.85;2.60;;;;;;;;;;5061222;28;20044;-59
2023/07/17 02:01:43;;;;;;;11.73;2.55;;;;;;;;;;5051764;28;20173;-59
2023/07/17 02:04:11;;;;;;;9.30;2.03;;;;;;;;;;5061266;28;20052;-59
2023/07/17 02:06:39;;;;;;;13.93;2.53;;;;;;;;;;5023263;28;20049;-59
2023/07/17 02:09:07;;;;;;;8.43;2.47;;;;;;;;;;5061607;28;20048;-58
2023/07/17 02:11:34;;;;;;;8.52;2.30;;;;;;;;;;4994725;28;20072;-59
2023/07/17 02:14:03;;;;;;;11.50;2.58;;;;;;;;;;5039879;28;20050;-59
2023/07/17 02:16:32;;;;;;;8.68;2.95;;;;;;;;;;5063478;28;20044;-59
2023/07/17 02:19:00;;;;;;;8.30;2.40;;;;;;;;;;5066211;28;20109;-59
2023/07/17 02:21:27;;;;;;;11.85;3.17;;;;;;;;;;5067204;28;20062;-58
2023/07/17 02:23:55;;;;;;;13.30;2.80;;;;;;;;;;5053529;28;20574;-59
2023/07/17 02:26:23;;;;;;;9.25;2.60;;;;;;;;;;5051091;28;20052;-59
2023/07/17 02:28:51;;;;;;;11.07;2.90;;;;;;;;;;5066044;28;20052;-59
2023/07/17 02:31:21;;;;;;;9.17;2.50;;;;;;;;;;5057422;28;20063;-59
2023/07/17 02:33:55;;;;;;;9.48;2.30;;;;;;;;;;5063557;28;20048;-59
2023/07/17 02:36:23;;;;;;;9.27;2.15;;;;;;;;;;5069743;28;20051;-59
2023/07/17 02:38:50;;;;;;;9.35;2.65;;;;;;;;;;5061613;28;20048;-59
2023/07/17 02:41:18;;;;;;;9.25;2.80;;;;;;;;;;5060881;28;20492;-59
2023/07/17 02:43:46;;;;;;;10.30;2.63;;;;;;;;;;5069071;28;20055;-56
2023/07/17 02:46:14;;;;;;;10.60;2.75;;;;;;;;;;5025017;28;20048;-59
2023/07/17 02:48:42;;;;;;;10.15;2.53;;;;;;;;;;5050067;28;20119;-59
2023/07/17 02:51:11;;;;;;;12.02;2.63;;;;;;;;;;5067034;28;20056;-59
2023/07/17 02:53:39;;;;;;;11.57;2.70;;;;;;;;;;5063751;28;20071;-59
2023/07/17 02:56:08;;;;;;;12.10;2.90;;;;;;;;;;5045980;28;20139;-57
2023/07/17 02:58:36;;;;;;;11.00;2.70;;;;;;;;;;5051778;28;20485;-59
2023/07/17 03:01:03;;;;;;;11.82;3.08;;;;;;;;;;5059767;28;20048;-59
2023/07/17 03:03:32;;;;;;;12.60;3.00;;;;;;;;;;5046733;28;20127;-59
2023/07/17 03:06:00;;;;;;;11.23;2.70;;;;;;;;;;5064744;28;20048;-59
2023/07/17 03:08:29;;;;;;;11.20;2.80;;;;;;;;;;5051360;28;20040;-59
2023/07/17 03:10:57;;;;;;;11.40;2.67;;;;;;;;;;5035601;28;20073;-59
2023/07/17 03:13:25;;;;;;;10.73;3.20;;;;;;;;;;5057493;28;20241;-59
2023/07/17 03:15:58;;;;;;;15.48;2.90;;;;;;;;;;5057174;28;20063;-59
2023/07/17 03:18:26;;;;;;;10.90;3.17;;;;;;;;;;5056397;28;20070;-57
2023/07/17 03:20:55;;;;;;;8.67;2.83;;;;;;;;;;5041779;28;20137;-59
2023/07/17 03:23:23;;;;;;;8.48;3.13;;;;;;;;;;5045718;28;20051;-59
2023/07/17 03:25:56;;;;;;;8.20;2.50;;;;;;;;;;5061520;28;20048;-59
2023/07/17 03:28:23;;;;;;;14.52;3.53;;;;;;;;;;5069172;28;20044;-59
2023/07/17 03:30:52;;;;;;;11.88;2.60;;;;;;;;;;5052641;28;20056;-59
2023/07/17 03:33:20;;;;;;;8.93;2.60;;;;;;;;;;5067362;28;20109;-59
2023/07/17 03:35:48;;;;;;;10.50;3.22;;;;;;;;;;5055195;28;20910;-59
2023/07/17 03:38:15;;;;;;;16.50;3.45;;;;;;;;;;5033981;28;20457;-59
2023/07/17 03:40:43;;;;;;;9.73;2.88;;;;;;;;;;5065841;28;20059;-59
2023/07/17 03:43:17;;;;;;;11.43;3.00;;;;;;;;;;5065536;28;20032;-59
2023/07/17 03:45:50;;;;;;;10.70;2.90;;;;;;;;;;5044927;28;20056;-59
2023/07/17 03:48:17;;;;;;;11.45;3.15;;;;;;;;;;5062892;28;20048;-59
2023/07/17 03:50:45;;;;;;;9.93;2.60;;;;;;;;;;5052267;28;20094;-59
2023/07/17 03:53:13;;;;;;;12.77;3.00;;;;;;;;;;5054960;28;20063;-59
2023/07/17 03:55:40;;;;;;;11.43;3.47;;;;;;;;;;5028133;28;20507;-59
2023/07/17 03:58:08;;;;;;;10.27;3.23;;;;;;;;;;5054682;28;20052;-59
2023/07/17 04:00:37;;;;;;;12.32;3.03;;;;;;;;;;5056112;28;20048;-58
2023/07/17 04:03:05;;;;;;;11.60;3.00;;;;;;;;;;5053608;28;20051;-59
2023/07/17 04:05:33;;;;;;;13.45;3.05;;;;;;;;;;5065447;28;20052;-59
2023/07/17 04:08:01;;;;;;;11.38;3.10;;;;;;;;;;5060707;28;20044;-59
2023/07/17 04:10:29;;;;;;;15.03;2.90;;;;;;;;;;5067390;28;20123;-59
2023/07/17 04:12:57;;;;;;;12.68;3.65;;;;;;;;;;5047256;28;20062;-59
2023/07/17 04:15:25;;;;;;;9.95;2.88;;;;;;;;;;5050095;28;20454;-59
2023/07/17 04:17:54;;;;;;;11.00;2.80;;;;;;;;;;5068938;28;20056;-59
2023/07/17 04:20:22;;;;;;;16.20;3.30;;;;;;;;;;5061335;28;21440;-59
2023/07/17 04:22:49;;;;;;;8.13;2.97;;;;;;;;;;5058929;28;20386;-59
2023/07/17 04:25:17;;;;;;;11.02;2.97;;;;;;;;;;5053792;28;20056;-59
2023/07/17 04:27:45;;;;;;;18.85;3.15;;;;;;;;;;5047848;28;20040;-59
2023/07/17 04:30:13;;;;;;;10.95;3.00;;;;;;;;;;5065731;28;20429;-60
2023/07/17 04:32:41;;;;;;;14.35;3.55;;;;;;;;;;5052857;28;20051;-59
2023/07/17 04:35:16;;;;;;;14.70;2.87;;;;;;;;;;5053291;28;20036;-59
2023/07/17 04:37:44;;;;;;;11.30;3.00;;;;;;;;;;5053629;28;20067;-59
2023/07/17 04:40:12;;;;;;;13.52;3.20;;;;;;;;;;5050066;28;20056;-59
2023/07/17 04:42:40;;;;;;;13.93;3.55;;;;;;;;;;5060055;28;20044;-59
2023/07/17 04:45:08;;;;;;;12.55;3.10;;;;;;;;;;5059484;28;20052;-59
2023/07/17 04:47:36;;;;;;;13.63;3.17;;;;;;;;;;5062913;28;20044;-59
2023/07/17 04:50:04;;;;;;;14.60;3.38;;;;;;;;;;5056082;28;20550;-59
2023/07/17 04:52:33;;;;;;;11.02;3.10;;;;;;;;;;5062610;28;20153;-59
2023/07/17 04:55:01;;;;;;;12.32;3.42;;;;;;;;;;5051708;28;20040;-59
2023/07/17 04:57:29;;;;;;;8.65;2.92;;;;;;;;;;5049996;28;20048;-59
2023/07/17 04:59:56;;;;;;;13.13;3.13;;;;;;;;;;5055631;28;20046;-59
2023/07/17 05:02:24;;;;;;;10.15;2.83;;;;;;;;;;5061736;28;20053;-59
2023/07/17 05:04:52;;;;;;;14.93;3.30;;;;;;;;;;5060221;28;20414;-58
2023/07/17 05:07:19;;;;;;;10.02;2.88;;;;;;;;;;5054775;28;20044;-59
2023/07/17 05:09:53;;;;;;;12.32;3.13;;;;;;;;;;5042536;28;20063;-60
2023/07/17 05:12:21;;;;;;;13.87;3.23;;;;;;;;;;5069137;28;20410;-59
2023/07/17 05:14:49;;;;;;;12.80;3.33;;;;;;;;;;5055726;28;20056;-58
2023/07/17 05:17:16;;;;;;;12.60;3.45;;;;;;;;;;5042127;28;20342;-59
2023/07/17 05:19:44;;;;;;;9.82;3.13;;;;;;;;;;5051088;28;20052;-59
2023/07/17 05:22:16;;;;;;;11.52;3.38;;;;;;;;;;5035535;28;20040;-59
2023/07/17 05:24:44;;;;;;;13.63;2.90;;;;;;;;;;5062046;28;20044;-59
2023/07/17 05:27:13;;;;;;;12.25;3.30;;;;;;;;;;5051224;28;20044;-59
2023/07/17 05:29:41;;;;;;;16.98;3.42;;;;;;;;;;5056909;28;20608;-59
2023/07/17 05:32:08;;;;;;;10.07;2.53;;;;;;;;;;5054939;28;20052;-59
2023/07/17 05:34:36;;;;;;;10.60;2.80;;;;;;;;;;5067684;28;20545;-59
2023/07/17 05:37:05;;;;;;;13.80;3.20;;;;;;;;;;5047381;28;20044;-59
2023/07/17 05:39:33;;;;;;;9.85;2.80;;;;;;;;;;5064594;28;20033;-59
2023/07/17 05:42:00;;;;;;;11.25;3.13;;;;;;;;;;5048558;28;20086;-60
2023/07/17 05:44:30;;;;;;;12.52;3.40;;;;;;;;;;5065135;28;20052;-59
2023/07/17 05:46:58;;;;;;;11.70;2.63;;;;;;;;;;5053532;28;20434;-59
2023/07/17 05:49:26;;;;;;;15.67;3.30;;;;;;;;;;5059209;28;20751;-59
2023/07/17 05:51:53;;;;;;;11.82;2.60;;;;;;;;;;5056949;28;20063;-59
2023/07/17 05:54:21;;;;;;;12.48;2.95;;;;;;;;;;5054739;28;20131;-59
2023/07/17 05:56:49;;;;;;;10.20;3.38;;;;;;;;;;5058901;28;20044;-59
2023/07/17 05:59:16;;;;;;;11.40;3.25;;;;;;;;;;5061110;28;20055;-59
2023/07/17 06:01:45;;;;;;;14.27;3.20;;;;;;;;;;5059033;28;20055;-59
2023/07/17 06:04:13;;;;;;;12.32;3.45;;;;;;;;;;5059422;28;20560;-59
2023/07/17 06:06:41;;;;;;;9.38;2.92;;;;;;;;;;5048790;28;20056;-60
2023/07/17 06:09:08;;;;;;;15.13;3.58;;;;;;;;;;5060675;28;20126;-59
2023/07/17 06:11:36;;;;;;;10.02;2.80;;;;;;;;;;5043667;28;20048;-59
2023/07/17 06:14:04;;;;;;;12.37;3.20;;;;;;;;;;5059642;28;20055;-59
2023/07/17 06:16:32;;;;;;;12.02;3.03;;;;;;;;;;5060076;28;20131;-60
2023/07/17 06:19:01;;;;;;;13.95;3.53;;;;;;;;;;5056696;28;20044;-59
2023/07/17 06:21:30;;;;;;;10.77;2.80;;;;;;;;;;5059684;28;20044;-59
2023/07/17 06:23:57;;;;;;;12.10;2.85;;;;;;;;;;5058474;28;20044;-59
2023/07/17 06:26:25;;;;;;;14.23;3.43;;;;;;;;;;5046072;28;20498;-59
2023/07/17 06:28:53;;;;;;;12.90;2.88;;;;;;;;;;5041200;28;20587;-59
2023/07/17 06:31:20;;;;;;;8.05;2.85;;;;;;;;;;5070087;28;20056;-59
2023/07/17 06:33:48;;;;;;;12.25;2.55;;;;;;;;;;5053941;28;20044;-59
2023/07/17 06:36:17;;;;;;;10.48;3.00;;;;;;;;;;5064743;28;20055;-59
2023/07/17 06:38:45;;;;;;;10.40;3.10;;;;;;;;;;5037611;28;20067;-59
2023/07/17 06:41:13;;;;;;;9.90;2.65;;;;;;;;;;5061647;28;20047;-59
2023/07/17 06:43:40;;;;;;;9.50;2.63;;;;;;;;;;5051344;28;20052;-59
2023/07/17 06:46:08;;;;;;;10.35;2.65;;;;;;;;;;5069633;28;20063;-58
2023/07/17 06:48:36;;;;;;;10.10;2.60;;;;;;;;;;5053452;28;20547;-59
2023/07/17 06:51:04;;;;;;;12.70;2.93;;;;;;;;;;5063172;28;20055;-58
2023/07/17 06:53:33;;;;;;;10.35;2.10;;;;;;;;;;5055997;28;20040;-59
2023/07/17 06:56:03;;;;;;;10.60;2.60;;;;;;;;;;5056278;28;20052;-59
2023/07/17 06:58:30;;;;;;;10.73;2.17;;;;;;;;;;5051060;28;20043;-59
2023/07/17 07:00:58;;;;;;;9.85;2.10;;;;;;;;;;5058352;28;20059;-59
2023/07/17 07:03:27;;;;;;;9.63;2.37;;;;;;;;;;5063570;28;20044;-59
2023/07/17 07:05:56;;;;;;;10.10;2.35;;;;;;;;;;5051422;28;20044;-59
2023/07/17 07:08:24;;;;;;;17.75;3.42;;;;;;;;;;5048947;28;20044;-59
2023/07/17 07:10:53;;;;;;;7.97;2.35;;;;;;;;;;5055400;28;20059;-59
2023/07/17 07:13:21;;;;;;;9.48;2.03;;;;;;;;;;5059145;28;20055;-60
2023/07/17 07:15:49;;;;;;;7.73;1.97;;;;;;;;;;5060306;28;20421;-58
2023/07/17 07:18:16;;;;;;;9.80;2.15;;;;;;;;;;5067782;28;20044;-59
2023/07/17 07:20:44;;;;;;;10.50;2.08;;;;;;;;;;5065611;28;20054;-59
2023/07/17 07:23:12;;;;;;;9.77;2.28;;;;;;;;;;5072526;28;20048;-59
2023/07/17 07:25:42;;;;;;;7.85;2.30;;;;;;;;;;5059307;28;20080;-59
2023/07/17 07:28:12;;;;;;;7.63;2.20;;;;;;;;;;5054352;28;20082;-60
2023/07/17 07:30:40;;;;;;;8.52;2.08;;;;;;;;;;5059143;28;20765;-59
2023/07/17 07:33:08;;;;;;;10.10;2.67;;;;;;;;;;5061794;28;20056;-60
2023/07/17 07:35:36;;;;;;;17.17;3.05;;;;;;;;;;5056990;28;20052;-60
2023/07/17 07:38:03;;;;;;;6.82;1.67;;;;;;;;;;5063074;28;20048;-60
2023/07/17 07:40:31;;;;;;;9.17;2.40;;;;;;;;;;5051637;28;20040;-60
2023/07/17 07:42:59;;;;;;;6.72;1.77;;;;;;;;;;5062934;28;20055;-59
2023/07/17 07:45:28;;;;;;;8.82;2.00;;;;;;;;;;5043051;28;20763;-59
2023/07/17 07:47:56;;;;;;;9.38;1.77;;;;;;;;;;5064952;28;20133;-59
2023/07/17 07:50:24;;;;;;;8.07;1.45;;;;;;;;;;5056114;28;20058;-60
2023/07/17 07:52:54;;;;;;;8.43;1.80;;;;;;;;;;5061038;28;20044;-59
2023/07/17 07:55:22;;;;;;;8.03;1.40;;;;;;;;;;4717043;28;9999770;-59
2023/07/17 07:57:51;;;;;;;5.72;1.10;;;;;;;;;;5061052;28;20522;-59
2023/07/17 08:00:19;;;;;;;6.85;1.58;;;;;;;;;;5061453;28;20082;-59
2023/07/17 08:02:49;;;;;;;9.55;2.10;;;;;;;;;;5059852;28;20058;-55
2023/07/17 08:05:17;;;;;;;6.28;1.55;;;;;;;;;;5054401;28;20164;-59
2023/07/17 08:07:44;;;;;;;8.03;1.97;;;;;;;;;;5065257;28;20052;-59
2023/07/17 08:10:12;;;;;;;8.63;1.60;;;;;;;;;;5060740;28;20082;-59
2023/07/17 08:12:40;;;;;;;6.50;1.83;;;;;;;;;;5050832;28;20051;-59
2023/07/17 08:15:08;;;;;;;6.70;1.58;;;;;;;;;;4704066;28;9999949;-59
2023/07/17 08:17:36;;;;;;;6.53;1.90;;;;;;;;;;5057925;28;20056;-59
2023/07/17 08:20:23;;;;;;;12.38;2.00;;;;;;;;;;5030453;28;20044;-59
2023/07/17 08:22:55;;;;;;;4.97;1.42;;;;;;;;;;5051101;28;20052;-59
2023/07/17 08:25:23;;;;;;;6.38;1.50;;;;;;;;;;5042811;28;20557;-59
2023/07/17 08:27:51;;;;;;;7.25;1.30;;;;;;;;;;5019174;28;20489;-59
2023/07/17 08:30:18;;;;;;;6.07;1.53;;;;;;;;;;5058047;28;20042;-59
2023/07/17 08:32:46;;;;;;;7.07;1.60;;;;;;;;;;5064999;28;20573;-59
2023/07/17 08:35:14;;;;;;;6.40;1.13;;;;;;;;;;5058531;28;20147;-59
2023/07/17 08:37:43;;;;;;;5.95;1.33;;;;;;;;;;5063314;28;20135;-59
2023/07/17 08:40:11;;;;;;;10.30;1.83;;;;;;;;;;5065221;28;20040;-59
2023/07/17 08:42:44;;;;;;;8.43;1.53;;;;;;;;;;5064633;28;20821;-59
2023/07/17 08:45:12;;;;;;;5.50;1.00;;;;;;;;;;5058180;28;20055;-59
2023/07/17 08:47:40;;;;;;;7.32;1.30;;;;;;;;;;5060149;28;20055;-59
2023/07/17 08:50:08;;;;;;;6.80;1.83;;;;;;;;;;5047999;28;20127;-59
2023/07/17 08:52:38;;;;;;;7.25;1.30;;;;;;;;;;5058502;28;20056;-59
2023/07/17 08:55:08;;;;;;;7.20;1.60;;;;;;;;;;5047958;28;20131;-59
2023/07/17 08:57:36;;;;;;;7.95;1.40;;;;;;;;;;5041717;28;20063;-59
2023/07/17 09:00:05;;;;;;;7.25;1.50;;;;;;;;;;5068702;28;20508;-59
2023/07/17 09:02:33;;;;;;;8.77;1.25;;;;;;;;;;5046637;28;20044;-59
2023/07/17 09:05:01;;;;;;;8.15;1.27;;;;;;;;;;5062471;28;20126;-59
2023/07/17 09:07:29;;;;;;;6.73;1.23;;;;;;;;;;5060042;28;21135;-59
2023/07/17 09:10:19;;;;;;;6.53;1.00;;;;;;;;;;5039412;28;20394;-59
2023/07/17 09:12:50;;;;;;;5.07;1.10;;;;;;;;;;5061229;28;20054;-59
2023/07/17 09:15:18;;;;;;;7.95;1.92;;;;;;;;;;5045958;28;20036;-59
2023/07/17 09:17:46;;;;;;;5.55;1.55;;;;;;;;;;5067921;28;20036;-59
2023/07/17 09:20:16;;;;;;;5.10;0.90;;;;;;;;;;5054626;28;20456;-59
2023/07/17 09:22:44;;;;;;;5.25;1.00;;;;;;;;;;5067919;28;20055;-59
2023/07/17 09:25:12;;;;;;;4.93;1.38;;;;;;;;;;5055059;28;20113;-59
2023/07/17 09:27:45;;;;;;;7.35;1.73;;;;;;;;;;5051435;28;20087;-59
2023/07/17 09:30:13;;;;;;;4.20;0.90;;;;;;;;;;5065099;28;20052;-59
2023/07/17 09:32:41;;;;;;;5.07;1.17;;;;;;;;;;5056756;28;20052;-59
2023/07/17 09:35:19;;;;;;;6.20;0.88;;;;;;;;;;5068681;28;20127;-58
2023/07/17 09:37:47;;;;;;;4.70;0.80;;;;;;;;;;5066792;28;20058;-57
2023/07/17 09:40:17;;;;;;;4.57;1.15;;;;;;;;;;5055210;28;20056;-59
2023/07/17 09:42:51;;;;;;;5.35;1.45;;;;;;;;;;5069086;28;20506;-59
2023/07/17 09:45:19;;;;;;;4.63;1.27;;;;;;;;;;5030849;28;20048;-60
2023/07/17 09:47:48;;;;;;;4.30;1.13;;;;;;;;;;5066086;28;20055;-60
2023/07/17 09:50:18;;;;;;;5.40;1.60;;;;;;;;;;5057114;28;20135;-60
2023/07/17 09:52:46;;;;;;;4.07;1.10;;;;;;;;;;5065604;28;20044;-59
2023/07/17 09:55:14;;;;;;;4.25;1.13;;;;;;;;;;5049930;28;20795;-59
2023/07/17 09:57:43;;;;;;;5.77;1.03;;;;;;;;;;5054427;28;20044;-59
2023/07/17 10:00:17;;;;;;;4.80;0.82;;;;;;;;;;5070473;28;20044;-59
2023/07/17 10:02:52;;;;;;;5.45;1.20;;;;;;;;;;5061720;28;20048;-60
2023/07/17 10:05:20;;;;;;;7.28;0.85;;;;;;;;;;5058449;28;20040;-59
2023/07/17 10:07:49;;;;;;;4.53;0.80;;;;;;;;;;5062767;28;20056;-59
2023/07/17 10:10:17;;;;;;;5.50;0.97;;;;;;;;;;5047765;28;20043;-60
2023/07/17 10:12:45;;;;;;;7.15;0.90;;;;;;;;;;5071076;28;20157;-59
2023/07/17 10:15:17;;;;;;;4.47;1.10;;;;;;;;;;4674098;28;9999997;-60
2023/07/17 10:17:54;;;;;;;4.63;0.90;;;;;;;;;;5054658;28;20498;-59
2023/07/17 10:20:22;;;;;;;4.78;0.90;;;;;;;;;;5057911;28;20044;-59
2023/07/17 10:22:51;;;;;;;5.22;0.70;;;;;;;;;;5059640;28;20414;-59
2023/07/17 10:25:26;;;;;;;4.40;0.70;;;;;;;;;;5046998;28;22135;-60
2023/07/17 10:27:56;;;;;;;3.55;0.73;;;;;;;;;;5052946;28;20674;-59
2023/07/17 10:30:30;;;;;;;3.80;0.60;;;;;;;;;;5046866;28;20056;-60
2023/07/17 10:33:08;;;;;;;4.53;1.00;;;;;;;;;;5055234;28;20044;-60
2023/07/17 10:35:46;;;;;;;3.70;0.80;;;;;;;;;;5053289;28;20141;-60
2023/07/17 10:38:14;;;;;;;4.87;0.90;;;;;;;;;;5063372;28;20044;-60
2023/07/17 10:40:42;;;;;;;5.00;0.75;;;;;;;;;;5058221;28;20131;-60
2023/07/17 10:43:10;;;;;;;4.90;0.50;;;;;;;;;;5063808;28;20059;-61
2023/07/17 10:45:40;;;;;;;4.15;0.80;;;;;;;;;;5061314;28;20054;-60
2023/07/17 10:48:09;;;;;;;3.15;0.63;;;;;;;;;;5053213;28;20067;-60
2023/07/17 10:50:38;;;;;;;5.87;0.80;;;;;;;;;;5057749;28;20056;-61
2023/07/17 10:53:09;;;;;;;5.18;0.70;;;;;;;;;;5060822;28;20048;-60
2023/07/17 10:55:37;;;;;;;4.55;0.80;;;;;;;;;;5067076;28;20052;-60
2023/07/17 10:58:05;;;;;;;4.95;0.60;;;;;;;;;;5056220;28;20071;-60
2023/07/17 11:00:34;;;;;;;3.63;0.80;;;;;;;;;;5062878;28;20549;-60
2023/07/17 11:03:03;;;;;;;3.47;0.53;;;;;;;;;;5060838;28;20051;-60
2023/07/17 11:05:36;;;;;;;2.65;0.70;;;;;;;;;;5059335;28;20052;-59
2023/07/17 11:08:05;;;;;;;4.07;0.98;;;;;;;;;;5063787;28;20059;-59
2023/07/17 11:10:32;;;;;;;7.20;1.13;;;;;;;;;;5060091;28;20048;-59
2023/07/17 11:13:03;;;;;;;4.18;0.73;;;;;;;;;;5061785;28;20056;-60
2023/07/17 11:15:32;;;;;;;4.47;0.70;;;;;;;;;;5054388;28;20054;-59
2023/07/17 11:18:00;;;;;;;5.28;1.10;;;;;;;;;;5063567;28;20055;-59
2023/07/17 11:20:30;;;;;;;3.63;1.00;;;;;;;;;;5060924;28;20051;-59
2023/07/17 11:22:58;;;;;;;7.32;1.20;;;;;;;;;;5054487;28;20860;-59
2023/07/17 11:25:26;;;;;;;4.57;1.00;;;;;;;;;;5036927;28;20498;-59
2023/07/17 11:27:55;;;;;;;4.57;0.50;;;;;;;;;;5053163;28;20049;-58
2023/07/17 11:30:25;;;;;;;4.43;0.95;;;;;;;;;;5060053;28;20047;-59
2023/07/17 11:33:04;;;;;;;4.13;1.08;;;;;;;;;;5063547;28;20105;-58
2023/07/17 11:35:41;;;;;;;6.25;1.20;;;;;;;;;;5058875;28;20079;-59
2023/07/17 11:38:10;;;;;;;7.30;1.20;;;;;;;;;;5065608;28;20135;-59
2023/07/17 11:40:58;;;;;;;5.87;1.10;;;;;;;;;;5060529;28;20055;-59
2023/07/17 11:43:29;;;;;;;5.13;1.70;;;;;;;;;;5053452;28;20101;-58
2023/07/17 11:46:01;;;;;;;4.47;0.98;;;;;;;;;;5064552;28;20085;-59
2023/07/17 11:48:30;;;;;;;4.93;0.90;;;;;;;;;;5055357;28;20081;-58
2023/07/17 11:51:02;;;;;;;3.75;0.60;;;;;;;;;;5064212;28;20052;-58
2023/07/17 11:53:30;;;;;;;4.70;0.93;;;;;;;;;;5068593;28;20071;-58
2023/07/17 11:56:02;;;;;;;7.55;1.55;;;;;;;;;;5050096;28;20136;-57
2023/07/17 11:58:31;;;;;;;4.30;0.80;;;;;;;;;;5070240;28;20431;-59
2023/07/17 12:00:58;;;;;;;4.55;0.65;;;;;;;;;;5058549;28;20047;-58
2023/07/17 12:03:26;;;;;;;4.85;0.90;;;;;;;;;;5064007;28;20040;-59
2023/07/17 12:05:54;;;;;;;4.27;0.80;;;;;;;;;;5068759;28;20040;-60
2023/07/17 12:08:23;;;;;;;5.43;1.00;;;;;;;;;;5062661;28;20429;-59
2023/07/17 12:10:51;;;;;;;4.78;1.10;;;;;;;;;;5056935;28;20421;-59
2023/07/17 12:13:19;;;;;;;5.38;1.05;;;;;;;;;;5060509;28;20540;-59
2023/07/17 12:15:48;;;;;;;6.45;1.48;;;;;;;;;;5052402;28;20058;-59
2023/07/17 12:18:17;;;;;;;5.73;0.80;;;;;;;;;;5062280;28;20183;-59
2023/07/17 12:20:45;;;;;;;6.32;0.80;;;;;;;;;;5057116;28;20048;-58
2023/07/17 12:23:14;;;;;;;5.75;0.98;;;;;;;;;;5055408;28;20127;-59
2023/07/17 12:25:48;;;;;;;6.60;0.90;;;;;;;;;;5055788;28;20427;-59
2023/07/17 12:28:16;;;;;;;4.00;0.80;;;;;;;;;;4703243;28;10001011;-59
2023/07/17 12:30:43;;;;;;;5.93;0.82;;;;;;;;;;5041289;28;20729;-59
2023/07/17 12:33:11;;;;;;;8.60;1.00;;;;;;;;;;5061370;28;20056;-58
2023/07/17 12:35:40;;;;;;;5.45;0.80;;;;;;;;;;5035997;28;20052;-58
2023/07/17 12:38:09;;;;;;;3.45;0.88;;;;;;;;;;5068296;28;20056;-58
2023/07/17 12:40:56;;;;;;;6.73;1.20;;;;;;;;;;5065274;28;20051;-59
2023/07/17 12:43:24;;;;;;;7.22;0.98;;;;;;;;;;5057025;28;20056;-59
2023/07/17 12:45:52;;;;;;;6.82;1.00;;;;;;;;;;5065619;28;20058;-59
2023/07/17 12:48:19;;;;;;;4.32;0.80;;;;;;;;;;5057347;28;20825;-59
2023/07/17 12:50:47;;;;;;;4.53;1.23;;;;;;;;;;5063684;28;20067;-56
2023/07/17 12:53:18;;;;;;;4.60;0.83;;;;;;;;;;5059700;28;20075;-58
2023/07/17 12:55:46;;;;;;;7.00;1.10;;;;;;;;;;4713665;28;9999716;-58
2023/07/17 12:58:19;;;;;;;4.70;0.73;;;;;;;;;;5066150;28;20398;-59
2023/07/17 13:00:47;;;;;;;5.22;0.80;;;;;;;;;;5054618;28;20075;-59
2023/07/17 13:03:14;;;;;;;3.50;0.70;;;;;;;;;;5070107;28;20059;-59
2023/07/17 13:05:42;;;;;;;6.38;1.10;;;;;;;;;;5046884;28;20514;-59
2023/07/17 13:08:12;;;;;;;5.35;1.08;;;;;;;;;;5063077;28;20491;-59
2023/07/17 13:10:40;;;;;;;7.07;1.30;;;;;;;;;;5066968;28;20052;-59
2023/07/17 13:13:08;;;;;;;5.68;0.93;;;;;;;;;;5050102;28;20086;-57
2023/07/17 13:15:37;;;;;;;3.65;0.73;;;;;;;;;;5049817;28;20579;-59
2023/07/17 13:18:05;;;;;;;6.38;1.10;;;;;;;;;;5068304;28;20052;-59
2023/07/17 13:20:32;;;;;;;4.38;0.90;;;;;;;;;;5061603;28;20106;-58
2023/07/17 13:23:05;;;;;;;8.47;0.90;;;;;;;;;;5059614;28;20441;-59
2023/07/17 13:25:33;;;;;;;4.28;0.90;;;;;;;;;;5062932;28;20048;-59
2023/07/17 13:28:01;;;;;;;4.00;0.80;;;;;;;;;;5067054;28;20071;-59
2023/07/17 13:30:28;;;;;;;3.85;0.98;;;;;;;;;;5053720;28;20079;-58
2023/07/17 13:32:59;;;;;;;4.57;0.80;;;;;;;;;;5060954;28;20052;-59
2023/07/17 13:35:28;;;;;;;5.23;0.97;;;;;;;;;;5058685;28;20055;-57
2023/07/17 13:37:56;;;;;;;5.75;0.80;;;;;;;;;;5063200;28;20062;-59
2023/07/17 13:40:24;;;;;;;4.05;0.70;;;;;;;;;;5053284;28;20310;-59
2023/07/17 13:42:52;;;;;;;3.00;0.80;;;;;;;;;;5053701;28;20117;-59
2023/07/17 13:45:21;;;;;;;3.50;0.73;;;;;;;;;;5050208;28;20047;-59
2023/07/17 13:47:49;;;;;;;6.33;1.30;;;;;;;;;;5065733;28;20048;-58
2023/07/17 13:50:18;;;;;;;5.70;1.17;;;;;;;;;;5050163;28;20142;-59
2023/07/17 13:52:46;;;;;;;5.13;0.88;;;;;;;;;;5063433;28;20047;-59
2023/07/17 13:55:13;;;;;;;4.82;1.05;;;;;;;;;;5061807;28;20158;-59
2023/07/17 13:57:41;;;;;;;4.25;1.13;;;;;;;;;;5051745;28;20063;-59
2023/07/17 14:00:09;;;;;;;4.80;0.80;;;;;;;;;;5057994;28;20437;-59
2023/07/17 14:02:37;;;;;;;5.20;1.20;;;;;;;;;;5064629;28;20053;-59
2023/07/17 14:05:05;;;;;;;5.65;1.25;;;;;;;;;;5055921;28;20432;-59
2023/07/17 14:07:35;;;;;;;3.33;1.00;;;;;;;;;;5057514;28;20135;-59
2023/07/17 14:10:03;;;;;;;6.15;1.20;;;;;;;;;;5060576;28;21161;-59
2023/07/17 14:12:31;;;;;;;5.63;0.53;;;;;;;;;;5068998;28;20079;-59
2023/07/17 14:14:59;;;;;;;3.90;0.90;;;;;;;;;;5058948;28;20052;-59
2023/07/17 14:17:27;;;;;;;5.47;1.20;;;;;;;;;;5032798;28;20052;-59
2023/07/17 14:19:55;;;;;;;3.80;0.70;;;;;;;;;;5065920;28;20164;-59
2023/07/17 14:22:23;;;;;;;3.88;1.10;;;;;;;;;;5045325;28;20506;-59
2023/07/17 14:24:52;;;;;;;5.93;0.80;;;;;;;;;;5057627;28;20044;-59
2023/07/17 14:27:20;;;;;;;4.28;1.02;;;;;;;;;;5056116;28;20132;-59
2023/07/17 14:29:48;;;;;;;3.90;0.90;;;;;;;;;;5049346;28;20114;-58
2023/07/17 14:32:16;;;;;;;4.18;1.20;;;;;;;;;;5048146;28;20040;-59
2023/07/17 14:34:43;;;;;;;4.13;0.73;;;;;;;;;;5054470;28;20048;-59
2023/07/17 14:37:11;;;;;;;4.37;0.70;;;;;;;;;;5050871;28;20063;-59
2023/07/17 14:39:39;;;;;;;4.82;0.90;;;;;;;;;;5068989;28;20049;-59
2023/07/17 14:42:08;;;;;;;4.68;0.95;;;;;;;;;;5057923;28;20598;-59
2023/07/17 14:44:35;;;;;;;4.28;1.00;;;;;;;;;;5070833;28;20546;-59
2023/07/17 14:47:03;;;;;;;3.60;0.88;;;;;;;;;;5047797;28;20508;-59